Rechercher aéroport 
image banner adimage banner adimage banner ad
image banner ad

92CA - Westlake Farms

Situé à Stratford, United States

ICAO - 92CA, IATA -

Données fournies par Airmate  

Information générale

Coordonnées: N36°7'15" W119°53'18"
Élévation : 192 feet MSL.
Variation magnétique : 15° East
Voir autres Aéroports à California

Données opérationnelles

Special qualification required
Heure actuelle UTC:
Heure actuelle locale:
Météo à : KNLC - Lemoore Nas (Reeves Fld) ( 24 km )
METAR: KNLC 212356Z 02005KT 6SM HZ FU SCT034 BKN140 34/09 A3002 RMK AO2 SLP163 FU SCT034 BKN140 RH/21 T03440094 10350 20272 56013
TAF: TAF KNLC 2123/2223 VRB06KT 8000 HZ FU SCT034 BKN140 QNH2995INS TEMPO 2200/2206 33008KT 4800 HZ FU BKN034 BKN100 FM220600 28007KT 8000 HZ FU SCT034 BKN080 BKN100 QNH2996INS T15/2214Z T37/2223Z FS30012
Voir NOTAMs / SUP AIP / TFR affectant cet aéroport [VIEW]
Fréquences de communication: [VIEW]

Pistes:

Identifiant RWYQFULongueur (ft)Largeur (ft)SurfaceLDA (ft)
14360050ASPH
32360050ASPH

Coordonnées de l'aéroport

Adresse: Stratford United States

Vue satellite de 92CA